Time;durP1;ratioP1;P1;durP2;ratioP2;P2;SDS_P1;SDS_P2;PMS_P1;PMS_P2;Temp;Humidity;BMP_temperature;BMP_pressure;BME280_temperature;BME280_humidity;BME280_pressure;Samples;Min_cycle;Max_cycle;Signal;HPM_P1;HPM_P2
2024/01/04 00:02:15;;;;;;;35.47;31.88;;;18.50;92.80;;;;;;5020025;28;20042;-65
2024/01/04 00:04:41;;;;;;;33.92;30.63;;;18.50;92.40;;;;;;4998040;28;20089;-66
2024/01/04 00:07:07;;;;;;;31.50;28.40;;;18.60;92.70;;;;;;5017040;28;20072;-65
2024/01/04 00:09:32;;;;;;;30.27;27.20;;;18.70;92.70;;;;;;5029336;28;20058;-65
2024/01/04 00:11:58;;;;;;;27.65;24.85;;;18.60;92.60;;;;;;5013982;28;20056;-66
2024/01/04 00:14:24;;;;;;;28.15;25.38;;;;;;;;;;5013120;28;20050;-66
2024/01/04 00:16:50;;;;;;;27.13;24.33;;;18.80;92.50;;;;;;5014672;28;20077;-67
2024/01/04 00:19:16;;;;;;;25.00;22.45;;;18.80;91.80;;;;;;5015305;28;20511;-66
2024/01/04 00:21:41;;;;;;;24.08;21.38;;;18.70;92.50;;;;;;5013544;28;20558;-67
2024/01/04 00:24:07;;;;;;;22.30;20.00;;;18.70;92.50;;;;;;5013957;28;20077;-65
2024/01/04 00:26:33;;;;;;;21.15;18.95;;;;;;;;;;5012962;28;20551;-66
2024/01/04 00:29:00;;;;;;;20.27;18.17;;;;;;;;;;5012763;28;20048;-66
2024/01/04 00:31:25;;;;;;;19.45;17.45;;;18.50;92.50;;;;;;5014103;28;20053;-65
2024/01/04 00:33:51;;;;;;;18.27;16.40;;;18.60;92.50;;;;;;4999435;28;20056;-65
2024/01/04 00:36:18;;;;;;;17.92;16.08;;;18.40;92.50;;;;;;5014819;28;20095;-65
2024/01/04 00:38:43;;;;;;;17.67;15.77;;;18.50;92.50;;;;;;5013717;28;20085;-65
2024/01/04 00:41:09;;;;;;;16.70;14.23;;;18.50;92.50;;;;;;5013308;28;20046;-65
2024/01/04 00:43:36;;;;;;;15.75;14.15;;;18.50;91.40;;;;;;5013338;28;20054;-66
2024/01/04 00:46:02;;;;;;;15.80;13.98;;;18.50;92.50;;;;;;5029829;28;20046;-65
2024/01/04 00:48:28;;;;;;;16.10;12.80;;;18.50;92.60;;;;;;5012880;28;20408;-65
2024/01/04 00:50:54;;;;;;;14.65;12.07;;;18.50;92.60;;;;;;5012183;28;20053;-65
2024/01/04 00:53:20;;;;;;;14.95;12.35;;;;;;;;;;5012887;28;20042;-65
2024/01/04 00:55:47;;;;;;;12.82;10.73;;;;;;;;;;5012776;28;20079;-65
2024/01/04 00:58:13;;;;;;;18.65;11.00;;;18.30;92.60;;;;;;5012438;28;20038;-65
2024/01/04 01:00:38;;;;;;;12.65;10.23;;;18.40;92.60;;;;;;5012408;28;20049;-65
2024/01/04 01:03:04;;;;;;;10.85;9.35;;;18.30;92.60;;;;;;5013039;28;20052;-65
2024/01/04 01:05:30;;;;;;;13.55;8.95;;;18.40;91.60;;;;;;5045691;28;20495;-65
2024/01/04 01:07:56;;;;;;;10.65;8.75;;;;;;;;;;5045861;28;20057;-65
2024/01/04 01:10:22;;;;;;;10.45;8.27;;;18.50;92.60;;;;;;5010980;28;20046;-65
2024/01/04 01:12:48;;;;;;;12.48;8.07;;;;;;;;;;5013859;28;20060;-64
2024/01/04 01:15:14;;;;;;;8.32;7.43;;;18.50;92.60;;;;;;5014769;28;20388;-65
2024/01/04 01:17:40;;;;;;;10.50;7.72;;;18.30;92.50;;;;;;5013685;28;20038;-65
2024/01/04 01:20:07;;;;;;;9.60;6.95;;;18.50;92.60;;;;;;5012022;28;20450;-66
2024/01/04 01:22:33;;;;;;;8.05;6.53;;;18.50;92.50;;;;;;5013226;28;20100;-66
2024/01/04 01:24:58;;;;;;;8.43;6.30;;;18.40;92.50;;;;;;5013355;28;20046;-66
2024/01/04 01:27:25;;;;;;;10.15;6.70;;;18.40;92.50;;;;;;5014934;28;20069;-66
2024/01/04 01:29:50;;;;;;;8.07;5.78;;;18.30;92.50;;;;;;5046117;28;20045;-66
2024/01/04 01:32:16;;;;;;;7.57;6.00;;;18.50;92.60;;;;;;5040754;28;20396;-66
2024/01/04 01:34:42;;;;;;;8.48;5.35;;;18.40;92.50;;;;;;5013972;28;20188;-65
2024/01/04 01:37:09;;;;;;;7.70;5.50;;;18.30;92.60;;;;;;5046666;28;20443;-66
2024/01/04 01:39:35;;;;;;;7.75;4.85;;;18.40;92.60;;;;;;5012708;28;20057;-66
2024/01/04 01:42:01;;;;;;;7.18;5.32;;;18.30;92.60;;;;;;5029793;28;20124;-66
2024/01/04 01:44:27;;;;;;;9.32;5.38;;;18.20;92.60;;;;;;5014337;28;20635;-66
2024/01/04 01:46:53;;;;;;;7.63;4.72;;;;;;;;;;5014243;28;20103;-66
2024/01/04 01:49:19;;;;;;;6.95;4.35;;;18.10;92.60;;;;;;5045865;28;20136;-66
2024/01/04 01:51:45;;;;;;;6.43;4.25;;;;;;;;;;5012644;28;20519;-65
2024/01/04 01:54:10;;;;;;;7.13;4.35;;;18.10;92.70;;;;;;5014620;28;20041;-66
2024/01/04 01:56:36;;;;;;;8.15;4.20;;;18.10;92.70;;;;;;5046582;28;20507;-66
2024/01/04 01:59:02;;;;;;;6.20;3.95;;;18.00;92.70;;;;;;5044909;28;20041;-66
2024/01/04 02:01:28;;;;;;;7.45;3.60;;;18.00;92.70;;;;;;5013121;28;20057;-66
2024/01/04 02:03:55;;;;;;;8.00;3.63;;;;;;;;;;4995694;28;20653;-66
2024/01/04 02:06:21;;;;;;;5.95;3.30;;;;;;;;;;5011727;28;20046;-67
2024/01/04 02:08:49;;;;;;;5.63;3.15;;;18.20;92.70;;;;;;5012408;28;20442;-66
2024/01/04 02:11:17;;;;;;;5.45;3.28;;;18.10;92.60;;;;;;5010580;28;20081;-66
2024/01/04 02:13:43;;;;;;;5.22;3.10;;;18.10;92.70;;;;;;5011509;28;20045;-66
2024/01/04 02:16:09;;;;;;;5.90;2.70;;;18.10;91.40;;;;;;5012588;28;20052;-65
2024/01/04 02:18:35;;;;;;;5.53;2.63;;;18.10;92.60;;;;;;5026861;28;20739;-66
2024/01/04 02:21:01;;;;;;;9.57;3.00;;;18.10;92.60;;;;;;5011869;28;20103;-65
2024/01/04 02:23:27;;;;;;;5.35;2.90;;;18.00;92.60;;;;;;5011271;28;20377;-66
2024/01/04 02:25:53;;;;;;;4.38;2.60;;;18.20;92.70;;;;;;5011804;28;20053;-66
2024/01/04 02:28:19;;;;;;;5.78;2.53;;;18.00;92.60;;;;;;5011487;28;20041;-66
2024/01/04 02:30:45;;;;;;;5.63;2.50;;;;;;;;;;5009775;28;20062;-66
2024/01/04 02:33:12;;;;;;;4.45;2.17;;;18.10;92.70;;;;;;5045087;28;20057;-66
2024/01/04 02:35:38;;;;;;;7.35;2.60;;;;;;;;;;5012197;28;20049;-67
2024/01/04 02:38:04;;;;;;;5.43;2.40;;;18.30;92.90;;;;;;4999047;28;20519;-65
2024/01/04 02:40:30;;;;;;;6.15;2.03;;;;;;;;;;4995729;28;20518;-67
2024/01/04 02:42:56;;;;;;;5.18;2.10;;;18.10;92.70;;;;;;4995481;28;20046;-66
2024/01/04 02:45:22;;;;;;;4.68;1.88;;;18.00;92.70;;;;;;5010963;28;20103;-66
2024/01/04 02:47:47;;;;;;;5.47;1.80;;;17.80;92.70;;;;;;5011963;28;20077;-65
2024/01/04 02:50:14;;;;;;;5.78;2.53;;;18.10;92.70;;;;;;5012822;28;20045;-64
2024/01/04 02:52:39;;;;;;;5.10;2.22;;;18.00;92.70;;;;;;5044478;28;20077;-65
2024/01/04 02:55:06;;;;;;;3.97;1.63;;;;;;;;;;5028220;28;20085;-65
2024/01/04 02:57:31;;;;;;;4.28;1.77;;;17.90;92.70;;;;;;5012975;28;20517;-65
2024/01/04 02:59:57;;;;;;;4.20;1.80;;;18.10;92.80;;;;;;5012014;28;20069;-65
2024/01/04 03:02:23;;;;;;;3.83;1.50;;;18.00;92.80;;;;;;5012705;28;20511;-65
2024/01/04 03:04:49;;;;;;;4.30;1.80;;;17.90;92.80;;;;;;5011865;28;20046;-66
2024/01/04 03:07:15;;;;;;;5.53;1.85;;;;;;;;;;5012280;28;20041;-65
2024/01/04 03:09:40;;;;;;;4.25;1.88;;;17.90;92.80;;;;;;5010926;28;20124;-65
2024/01/04 03:12:06;;;;;;;3.28;1.42;;;17.70;91.90;;;;;;5013148;28;20126;-66
2024/01/04 03:14:32;;;;;;;4.72;1.73;;;17.70;92.80;;;;;;5044125;28;20057;-65
2024/01/04 03:16:58;;;;;;;4.72;1.67;;;17.70;92.90;;;;;;5013223;28;20034;-65
2024/01/04 03:19:23;;;;;;;4.30;1.52;;;17.60;92.90;;;;;;5044440;28;20045;-66
2024/01/04 03:21:49;;;;;;;3.67;1.38;;;17.70;92.90;;;;;;5013051;28;20076;-66
2024/01/04 03:24:15;;;;;;;3.38;1.58;;;17.70;93.00;;;;;;5012965;28;20429;-65
2024/01/04 03:26:41;;;;;;;5.50;1.50;;;17.50;92.90;;;;;;5044100;28;20129;-66
2024/01/04 03:29:07;;;;;;;2.72;1.40;;;;;;;;;;5010961;28;20037;-65
2024/01/04 03:31:33;;;;;;;2.92;1.30;;;17.50;92.90;;;;;;5011026;28;20108;-64
2024/01/04 03:33:59;;;;;;;4.35;1.40;;;;;;;;;;5012292;28;20033;-68
2024/01/04 03:36:25;;;;;;;2.47;1.25;;;17.50;93.00;;;;;;5030834;28;20041;-65
2024/01/04 03:38:51;;;;;;;4.57;1.25;;;;;;;;;;5011683;28;20487;-65
2024/01/04 03:41:16;;;;;;;3.95;1.45;;;17.30;93.10;;;;;;5011233;28;20101;-64
2024/01/04 03:43:43;;;;;;;3.42;1.40;;;17.20;91.90;;;;;;5011722;28;20054;-65
2024/01/04 03:46:08;;;;;;;4.40;1.20;;;17.40;93.20;;;;;;5010944;28;20038;-65
2024/01/04 03:48:34;;;;;;;2.83;1.02;;;17.40;93.20;;;;;;5027591;28;20056;-64
2024/01/04 03:51:00;;;;;;;3.55;1.30;;;17.40;93.20;;;;;;5012169;28;20038;-65
2024/01/04 03:53:26;;;;;;;3.90;1.30;;;17.30;93.30;;;;;;5044585;28;20042;-65
2024/01/04 03:55:52;;;;;;;3.08;1.02;;;17.20;93.30;;;;;;5012339;28;20045;-65
2024/01/04 03:58:18;;;;;;;3.95;1.23;;;;;;;;;;5013045;28;20046;-64
2024/01/04 04:00:44;;;;;;;3.50;1.30;;;17.10;91.90;;;;;;5001369;28;20038;-64
2024/01/04 04:03:10;;;;;;;2.90;1.30;;;17.00;93.30;;;;;;4994222;28;20050;-65
2024/01/04 04:05:36;;;;;;;2.20;1.17;;;17.00;93.30;;;;;;5011940;28;20042;-66
2024/01/04 04:08:01;;;;;;;3.33;1.13;;;17.00;93.30;;;;;;5011362;28;20079;-65
2024/01/04 04:10:27;;;;;;;3.65;0.90;;;17.20;93.40;;;;;;5012120;28;20514;-65
2024/01/04 04:12:53;;;;;;;2.22;0.88;;;;;;;;;;5044231;28;20049;-66
2024/01/04 04:15:19;;;;;;;2.83;1.40;;;16.90;93.40;;;;;;5012135;28;20042;-66
2024/01/04 04:17:45;;;;;;;1.90;0.90;;;17.10;93.50;;;;;;5011793;28;20041;-65
2024/01/04 04:20:11;;;;;;;2.55;1.10;;;16.90;93.50;;;;;;5012612;28;20046;-65
2024/01/04 04:22:37;;;;;;;5.35;1.10;;;;;;;;;;5044095;28;20447;-66
2024/01/04 04:25:03;;;;;;;1.83;0.90;;;16.80;93.60;;;;;;5044255;28;20053;-66
2024/01/04 04:27:28;;;;;;;2.05;1.00;;;16.90;93.60;;;;;;5026758;28;20042;-66
2024/01/04 04:29:55;;;;;;;1.48;0.80;;;;;;;;;;5011800;28;20546;-66
2024/01/04 04:32:20;;;;;;;2.83;1.00;;;16.80;93.70;;;;;;5043819;28;20085;-65
2024/01/04 04:34:46;;;;;;;2.47;1.08;;;16.80;93.70;;;;;;5012683;28;20526;-65
2024/01/04 04:37:14;;;;;;;2.25;0.82;;;16.90;93.80;;;;;;5011776;28;20420;-65
2024/01/04 04:39:40;;;;;;;2.25;0.93;;;16.70;92.60;;;;;;5011454;28;20559;-66
2024/01/04 04:42:06;;;;;;;2.53;1.15;;;16.80;93.70;;;;;;5011812;28;20129;-66
2024/01/04 04:44:31;;;;;;;2.00;0.82;;;16.60;93.70;;;;;;5013934;28;20384;-65
2024/01/04 04:46:57;;;;;;;3.15;1.02;;;16.50;93.80;;;;;;5014684;28;20069;-66
2024/01/04 04:49:23;;;;;;;2.13;0.80;;;16.50;93.80;;;;;;5014903;28;20503;-66
2024/01/04 04:51:49;;;;;;;2.22;0.93;;;16.60;93.80;;;;;;5047255;28;20081;-66
2024/01/04 04:54:17;;;;;;;1.20;0.73;;;16.60;93.80;;;;;;5013525;28;20052;-65
2024/01/04 04:56:43;;;;;;;2.08;0.77;;;16.70;93.90;;;;;;5030917;28;20104;-66
2024/01/04 04:59:09;;;;;;;2.60;1.00;;;16.70;93.90;;;;;;5029942;28;20045;-65
2024/01/04 05:01:35;;;;;;;3.50;0.77;;;;;;;;;;5047256;28;20833;-65
2024/01/04 05:04:01;;;;;;;1.77;0.88;;;16.60;93.90;;;;;;5013642;28;20058;-66
2024/01/04 05:06:27;;;;;;;2.38;0.75;;;16.50;93.30;;;;;;5012624;28;20088;-66
2024/01/04 05:08:53;;;;;;;1.48;0.75;;;16.50;93.90;;;;;;5013855;28;20046;-66
2024/01/04 05:11:18;;;;;;;2.85;1.00;;;16.50;93.90;;;;;;5013798;28;20427;-66
2024/01/04 05:13:44;;;;;;;2.10;0.60;;;16.60;93.90;;;;;;5047174;28;20479;-65
2024/01/04 05:16:10;;;;;;;2.45;0.75;;;16.40;93.90;;;;;;5046439;28;20054;-65
2024/01/04 05:18:36;;;;;;;1.50;0.63;;;;;;;;;;5046614;28;20516;-66
2024/01/04 05:21:02;;;;;;;1.60;0.60;;;16.50;94.00;;;;;;5014439;28;20042;-65
2024/01/04 05:23:28;;;;;;;1.75;0.70;;;;;;;;;;5046923;28;20046;-65
2024/01/04 05:25:54;;;;;;;1.27;0.52;;;16.40;94.00;;;;;;5015021;28;20042;-66
2024/01/04 05:28:20;;;;;;;3.65;0.80;;;16.30;93.90;;;;;;5046273;28;20459;-65
2024/01/04 05:30:46;;;;;;;2.58;1.10;;;16.20;93.90;;;;;;5013406;28;20061;-66
2024/01/04 05:33:13;;;;;;;2.55;0.82;;;16.20;93.90;;;;;;5014145;28;20046;-66
2024/01/04 05:35:39;;;;;;;2.03;0.82;;;16.30;94.00;;;;;;5013156;28;20064;-66
2024/01/04 05:38:05;;;;;;;2.15;0.88;;;;;;;;;;5012506;28;20145;-66
2024/01/04 05:40:31;;;;;;;1.85;0.70;;;16.30;93.90;;;;;;5014223;28;20037;-65
2024/01/04 05:42:57;;;;;;;2.70;0.98;;;16.20;94.00;;;;;;5013009;28;20040;-66
2024/01/04 05:45:23;;;;;;;1.45;0.60;;;16.40;94.00;;;;;;5012993;28;20057;-66
2024/01/04 05:47:49;;;;;;;1.48;0.50;;;16.30;94.00;;;;;;5013303;28;20104;-65
2024/01/04 05:50:15;;;;;;;1.85;0.75;;;16.20;94.00;;;;;;5046414;28;20124;-66
2024/01/04 05:52:40;;;;;;;1.75;0.80;;;16.30;94.00;;;;;;5014093;28;20092;-64
2024/01/04 05:55:07;;;;;;;2.10;0.70;;;;;;;;;;5011979;28;20459;-65
2024/01/04 05:57:34;;;;;;;2.72;0.60;;;;;;;;;;5021971;28;20056;-65
2024/01/04 06:00:00;;;;;;;2.30;0.55;;;16.10;94.00;;;;;;5033099;28;20576;-65
2024/01/04 06:02:27;;;;;;;1.60;0.55;;;16.10;94.10;;;;;;5023264;28;20121;-65
2024/01/04 06:04:54;;;;;;;2.67;0.77;;;16.10;93.30;;;;;;5045859;28;20486;-66
2024/01/04 06:07:21;;;;;;;2.92;0.60;;;16.00;94.00;;;;;;5014207;28;20034;-66
2024/01/04 06:09:46;;;;;;;1.45;0.60;;;16.20;94.10;;;;;;5020703;28;20056;-65
2024/01/04 06:12:12;;;;;;;3.13;0.77;;;16.10;94.10;;;;;;5033061;28;20049;-66
2024/01/04 06:14:38;;;;;;;2.67;0.68;;;;;;;;;;5033005;28;20049;-65
2024/01/04 06:17:04;;;;;;;2.42;0.65;;;16.00;94.00;;;;;;5032678;28;20049;-66
2024/01/04 06:19:30;;;;;;;2.10;0.80;;;;;;;;;;5021691;28;20052;-64
2024/01/04 06:21:56;;;;;;;1.23;0.60;;;16.00;94.00;;;;;;5013087;28;20049;-65
2024/01/04 06:24:23;;;;;;;2.78;0.65;;;16.00;94.00;;;;;;5013030;28;20078;-64
2024/01/04 06:26:49;;;;;;;2.75;0.65;;;;;;;;;;5013960;28;20141;-65
2024/01/04 06:29:15;;;;;;;1.23;0.65;;;16.10;94.00;;;;;;5012876;28;20152;-64
2024/01/04 06:31:40;;;;;;;2.17;0.47;;;16.00;94.00;;;;;;5011701;28;20282;-63
2024/01/04 06:34:06;;;;;;;1.52;0.50;;;16.10;94.10;;;;;;5013540;28;20122;-64
2024/01/04 06:36:32;;;;;;;1.80;0.52;;;15.80;93.90;;;;;;5044861;28;20408;-65
2024/01/04 06:38:58;;;;;;;1.95;0.70;;;15.90;94.00;;;;;;5044813;28;20128;-65
2024/01/04 06:41:29;;;;;;;2.30;0.75;;;16.00;94.00;;;;;;5028528;28;20042;-64
2024/01/04 06:43:55;;;;;;;3.17;0.57;;;;;;;;;;5011715;28;20050;-65
2024/01/04 06:46:21;;;;;;;1.48;0.50;;;15.90;94.00;;;;;;5028015;28;20050;-64
2024/01/04 06:48:46;;;;;;;2.03;0.60;;;15.80;94.00;;;;;;5028428;28;20050;-64
2024/01/04 06:51:12;;;;;;;2.35;0.50;;;15.90;94.00;;;;;;5028716;28;20085;-65
2024/01/04 06:53:38;;;;;;;2.28;0.60;;;15.90;94.00;;;;;;5011356;28;20495;-65
2024/01/04 06:56:05;;;;;;;1.90;0.70;;;;;;;;;;5012403;28;20050;-65
2024/01/04 06:58:31;;;;;;;3.20;0.80;;;;;;;;;;5012820;28;20111;-66
2024/01/04 07:00:57;;;;;;;1.70;0.60;;;15.90;94.00;;;;;;5045128;28;20049;-65
2024/01/04 07:03:22;;;;;;;4.38;0.75;;;15.90;94.00;;;;;;5012365;28;20038;-66
2024/01/04 07:05:49;;;;;;;1.20;0.50;;;15.80;94.00;;;;;;5012272;28;20124;-65
2024/01/04 07:08:14;;;;;;;3.45;0.73;;;15.80;94.00;;;;;;5012288;28;20042;-65
2024/01/04 07:10:41;;;;;;;1.90;0.65;;;;;;;;;;5011721;28;20061;-65
2024/01/04 07:13:09;;;;;;;2.00;0.65;;;15.80;93.80;;;;;;5011511;28;20492;-65
2024/01/04 07:15:35;;;;;;;4.00;0.95;;;;;;;;;;5012928;28;20366;-65
2024/01/04 07:18:01;;;;;;;2.05;1.00;;;15.80;93.60;;;;;;5043677;28;20053;-66
2024/01/04 07:20:27;;;;;;;3.38;0.60;;;;;;;;;;5010166;28;20038;-66
2024/01/04 07:22:53;;;;;;;2.00;0.73;;;15.60;93.40;;;;;;5010785;28;20117;-66
2024/01/04 07:25:22;;;;;;;2.40;0.80;;;15.60;91.70;;;;;;5009088;28;20467;-66
2024/01/04 07:27:48;;;;;;;2.97;0.80;;;15.40;93.40;;;;;;5012704;28;20678;-66
2024/01/04 07:30:14;;;;;;;1.98;0.77;;;15.50;93.30;;;;;;5023583;28;20181;-65
2024/01/04 07:32:40;;;;;;;3.95;0.77;;;15.60;93.40;;;;;;5020577;28;20143;-66
2024/01/04 07:35:07;;;;;;;1.40;0.60;;;15.60;91.80;;;;;;5016160;28;20085;-66
2024/01/04 07:37:33;;;;;;;2.75;0.95;;;15.50;93.20;;;;;;5014230;28;20056;-64
2024/01/04 07:39:59;;;;;;;2.78;1.02;;;15.50;93.20;;;;;;5013500;28;20120;-65
2024/01/04 07:42:26;;;;;;;1.90;0.82;;;;;;;;;;5016376;28;20045;-66
2024/01/04 07:44:52;;;;;;;2.50;0.80;;;15.50;91.80;;;;;;5013346;28;20056;-66
2024/01/04 07:47:18;;;;;;;3.05;0.95;;;;;;;;;;5014331;28;20392;-66
2024/01/04 07:49:44;;;;;;;2.80;0.90;;;15.40;93.10;;;;;;5013743;28;20042;-65
2024/01/04 07:52:10;;;;;;;3.47;1.00;;;15.20;93.10;;;;;;5019752;28;20365;-65
2024/01/04 07:54:36;;;;;;;3.25;0.90;;;15.30;93.10;;;;;;5007331;28;20081;-64
2024/01/04 07:57:02;;;;;;;3.40;0.68;;;15.40;93.10;;;;;;5014039;28;20041;-65
2024/01/04 07:59:28;;;;;;;1.52;0.60;;;15.20;91.30;;;;;;5014525;28;20049;-65
2024/01/04 08:01:53;;;;;;;3.17;0.90;;;15.30;93.00;;;;;;5013270;28;20049;-66
2024/01/04 08:04:21;;;;;;;2.83;0.80;;;;;;;;;;5040533;28;20496;-66
2024/01/04 08:06:50;;;;;;;2.58;0.98;;;15.40;92.90;;;;;;5008289;28;20126;-66
2024/01/04 08:09:17;;;;;;;3.10;1.33;;;15.50;93.00;;;;;;5012397;28;20088;-65
2024/01/04 08:11:42;;;;;;;3.65;0.73;;;15.40;91.60;;;;;;5015003;28;20049;-65
2024/01/04 08:14:09;;;;;;;3.25;0.70;;;;;;;;;;5013655;28;20156;-66
2024/01/04 08:16:35;;;;;;;6.50;1.23;;;15.30;93.00;;;;;;5022380;28;20050;-66
2024/01/04 08:19:01;;;;;;;5.78;1.08;;;15.30;92.90;;;;;;5025375;28;20376;-65
2024/01/04 08:21:27;;;;;;;9.35;1.90;;;15.20;92.80;;;;;;5020177;28;20058;-65
2024/01/04 08:23:54;;;;;;;151.30;134.73;;;;;;;;;;5010174;28;20054;-64
2024/01/04 08:26:19;;;;;;;199.85;167.40;;;15.20;92.90;;;;;;5030700;28;20045;-67
2024/01/04 08:28:45;;;;;;;226.45;204.32;;;15.30;93.00;;;;;;5031999;28;20091;-67
2024/01/04 08:31:11;;;;;;;249.25;225.25;;;15.20;93.10;;;;;;5031310;28;20053;-65
2024/01/04 08:33:37;;;;;;;210.45;190.68;;;;;;;;;;5030087;28;20050;-66
2024/01/04 08:36:04;;;;;;;164.60;149.32;;;;;;;;;;5000816;28;20058;-65
2024/01/04 08:38:30;;;;;;;146.15;131.38;;;15.70;92.90;;;;;;5013949;28;20053;-65
2024/01/04 08:40:56;;;;;;;129.88;117.88;;;16.00;92.80;;;;;;4997385;28;20037;-65
2024/01/04 08:43:22;;;;;;;116.30;105.40;;;16.10;92.50;;;;;;5013273;28;20041;-65
2024/01/04 08:45:50;;;;;;;107.35;97.25;;;;;;;;;;5014485;28;20478;-65
2024/01/04 08:48:16;;;;;;;97.18;88.57;;;16.60;91.90;;;;;;5013316;28;20484;-66
2024/01/04 08:50:42;;;;;;;92.22;84.07;;;;;;;;;;5012514;28;20038;-64
2024/01/04 08:53:08;;;;;;;83.50;76.28;;;16.60;91.40;;;;;;5014369;28;20080;-66
2024/01/04 08:55:34;;;;;;;82.88;75.72;;;16.60;91.10;;;;;;5013679;28;20402;-64
2024/01/04 08:58:00;;;;;;;96.32;88.53;;;;;;;;;;5015846;28;20377;-65
2024/01/04 09:00:26;;;;;;;80.82;74.03;;;16.90;90.80;;;;;;5013962;28;20041;-65
2024/01/04 09:02:52;;;;;;;69.93;64.13;;;16.90;90.70;;;;;;5014111;28;20045;-65
2024/01/04 09:05:18;;;;;;;60.70;55.22;;;17.10;90.50;;;;;;5013969;28;20085;-64
2024/01/04 09:07:44;;;;;;;55.50;50.70;;;17.10;90.40;;;;;;5015045;28;20045;-64
2024/01/04 09:10:09;;;;;;;47.78;43.53;;;17.10;90.20;;;;;;5013176;28;20041;-64
2024/01/04 09:12:38;;;;;;;45.05;41.08;;;;;;;;;;5014418;28;20041;-65
2024/01/04 09:15:05;;;;;;;41.58;37.65;;;17.10;90.00;;;;;;5014642;28;20514;-64
2024/01/04 09:17:31;;;;;;;34.88;31.83;;;;;;;;;;5013703;28;20470;-65
2024/01/04 09:19:58;;;;;;;33.38;30.58;;;;;;;;;;5014896;28;20437;-64
2024/01/04 09:22:24;;;;;;;29.10;26.55;;;;;;;;;;5011531;28;20033;-65
2024/01/04 09:24:50;;;;;;;25.65;23.52;;;17.00;89.20;;;;;;5014428;28;20034;-65
2024/01/04 09:27:16;;;;;;;24.42;22.27;;;;;;;;;;5025369;28;20398;-64
2024/01/04 09:29:44;;;;;;;24.50;22.20;;;17.00;88.80;;;;;;5016809;28;20038;-65
2024/01/04 09:32:10;;;;;;;18.50;16.65;;;;;;;;;;5053114;28;20136;-65
2024/01/04 09:34:36;;;;;;;11.15;6.22;;;17.00;87.90;;;;;;5018866;28;20100;-63
2024/01/04 09:37:02;;;;;;;8.55;5.60;;;;;;;;;;5012664;28;20046;-63
2024/01/04 09:39:28;;;;;;;12.23;10.45;;;16.80;87.70;;;;;;5014371;28;20041;-63
2024/01/04 09:41:54;;;;;;;10.70;7.93;;;17.00;84.70;;;;;;5011942;28;20046;-62
2024/01/04 09:44:19;;;;;;;9.98;7.22;;;17.10;87.70;;;;;;5010990;28;20125;-63
2024/01/04 09:46:46;;;;;;;8.75;6.43;;;16.90;87.40;;;;;;5013465;28;20038;-62
2024/01/04 09:49:13;;;;;;;8.63;6.50;;;17.00;87.40;;;;;;5011639;28;20046;-62
2024/01/04 09:51:42;;;;;;;9.35;6.22;;;17.00;87.30;;;;;;5045624;28;20399;-62
2024/01/04 09:54:11;;;;;;;9.65;6.15;;;17.20;87.30;;;;;;5011331;28;20053;-62
2024/01/04 09:56:46;;;;;;;19.58;17.50;;;17.20;83.10;;;;;;5006642;28;20050;-65
2024/01/04 09:59:12;;;;;;;81.82;74.80;;;17.30;87.20;;;;;;5003288;28;20054;-65
2024/01/04 10:01:38;;;;;;;50.47;46.28;;;17.30;84.00;;;;;;5007726;28;20050;-66
2024/01/04 10:04:11;;;;;;;41.03;37.45;;;;;;;;;;5011656;28;20046;-66
2024/01/04 10:06:37;;;;;;;37.90;34.60;;;17.30;87.10;;;;;;5011136;28;20053;-65
2024/01/04 10:09:14;;;;;;;34.28;31.13;;;17.40;84.60;;;;;;4992710;28;20049;-65
2024/01/04 10:11:46;;;;;;;30.67;27.83;;;17.70;83.20;;;;;;4991812;28;20590;-65
2024/01/04 10:14:12;;;;;;;28.83;26.27;;;17.70;86.20;;;;;;5010966;28;20054;-65
2024/01/04 10:16:38;;;;;;;27.88;25.38;;;;;;;;;;5012141;28;20054;-65
2024/01/04 10:19:04;;;;;;;24.65;22.35;;;17.90;85.60;;;;;;4991718;28;20050;-65
2024/01/04 10:21:32;;;;;;;24.42;22.13;;;18.10;85.70;;;;;;5010511;28;20510;-64
2024/01/04 10:23:58;;;;;;;22.10;20.10;;;;;;;;;;5008709;28;20492;-65
2024/01/04 10:26:26;;;;;;;21.65;19.38;;;17.90;85.50;;;;;;5009437;28;20412;-64
2024/01/04 10:28:55;;;;;;;69.13;22.10;;;18.20;81.80;;;;;;5013804;28;20053;-66
2024/01/04 10:31:22;;;;;;;119.45;25.45;;;;;;;;;;4993284;28;20547;-66
2024/01/04 10:34:01;;;;;;;144.68;26.02;;;17.90;83.10;;;;;;5016689;28;20053;-66
2024/01/04 10:36:30;;;;;;;145.98;25.52;;;18.00;85.80;;;;;;4994256;28;20053;-65
2024/01/04 10:39:00;;;;;;;94.43;21.70;;;17.90;85.90;;;;;;5026529;28;20124;-65
2024/01/04 10:41:29;;;;;;;74.70;19.55;;;;;;;;;;5012543;28;20052;-65
2024/01/04 10:44:05;;;;;;;90.95;18.83;;;17.80;85.70;;;;;;5012927;28;20064;-65
2024/01/04 10:46:34;;;;;;;59.45;16.67;;;;;;;;;;5007410;28;20447;-65
2024/01/04 10:49:03;;;;;;;58.50;14.95;;;17.60;85.60;;;;;;5011533;28;20466;-65
2024/01/04 10:51:32;;;;;;;50.65;13.73;;;17.80;83.10;;;;;;4994987;28;20057;-66
2024/01/04 10:54:00;;;;;;;45.70;13.95;;;17.70;85.50;;;;;;4992256;28;20042;-65
2024/01/04 10:56:30;;;;;;;58.58;14.07;;;17.70;85.50;;;;;;5007344;28;20054;-65
2024/01/04 10:58:57;;;;;;;54.15;13.93;;;17.50;82.90;;;;;;5028742;28;20061;-66
2024/01/04 11:01:22;;;;;;;49.05;13.25;;;17.70;85.90;;;;;;4995782;28;20057;-66
2024/01/04 11:03:49;;;;;;;46.13;13.20;;;17.70;86.00;;;;;;5012309;28;20045;-65
2024/01/04 11:06:15;;;;;;;38.83;12.20;;;17.60;85.90;;;;;;5009008;28;20070;-65
2024/01/04 11:08:41;;;;;;;52.78;12.00;;;17.50;84.90;;;;;;5042539;28;20054;-66
2024/01/04 11:11:07;;;;;;;69.72;14.23;;;;;;;;;;5039529;28;20112;-65
2024/01/04 11:13:33;;;;;;;67.18;15.85;;;;;;;;;;5025336;28;20455;-65
2024/01/04 11:15:59;;;;;;;118.07;73.88;;;17.60;83.80;;;;;;5040163;28;20067;-65
2024/01/04 11:19:06;;;;;;;104.18;46.47;;;17.60;83.40;;;;;;5011877;28;20042;-65
2024/01/04 11:21:51;;;;;;;70.82;38.95;;;;;;;;;;4995752;28;20407;-65
2024/01/04 11:24:29;;;;;;;68.80;33.92;;;17.70;83.40;;;;;;4996774;28;20108;-65
2024/01/04 11:26:57;;;;;;;70.78;32.88;;;17.70;85.90;;;;;;4993276;28;20042;-65
2024/01/04 11:29:23;;;;;;;51.53;27.92;;;;;;;;;;4995238;28;20117;-65
2024/01/04 11:31:49;;;;;;;52.70;27.48;;;17.70;85.80;;;;;;5028209;28;20046;-65
2024/01/04 11:34:15;;;;;;;42.63;22.90;;;17.70;85.70;;;;;;5012432;28;20049;-65
2024/01/04 11:36:41;;;;;;;39.63;19.67;;;17.60;85.40;;;;;;5025009;28;20125;-65
2024/01/04 11:39:07;;;;;;;40.55;19.17;;;17.50;84.40;;;;;;5012084;28;20137;-65
2024/01/04 11:41:36;;;;;;;42.00;19.63;;;17.50;85.30;;;;;;5042380;28;20070;-65
2024/01/04 11:44:02;;;;;;;33.15;18.15;;;;;;;;;;4994026;28;20065;-66
2024/01/04 11:46:28;;;;;;;27.90;16.23;;;17.70;85.30;;;;;;5027273;28;20053;-65
2024/01/04 11:49:01;;;;;;;30.30;14.65;;;17.70;81.30;;;;;;5026529;28;20046;-66
2024/01/04 11:51:48;;;;;;;25.98;14.40;;;17.70;81.70;;;;;;5040080;28;20063;-65
2024/01/04 11:54:15;;;;;;;19.20;13.05;;;17.50;85.10;;;;;;5045608;28;20045;-65
2024/01/04 11:56:41;;;;;;;20.88;12.10;;;17.40;85.10;;;;;;4997298;28;20064;-66
2024/01/04 11:59:11;;;;;;;18.85;11.32;;;17.60;85.30;;;;;;5015379;28;20042;-66
2024/01/04 12:01:43;;;;;;;21.75;10.45;;;17.10;82.40;;;;;;5013070;28;20399;-65
2024/01/04 12:04:13;;;;;;;16.15;10.77;;;17.50;85.10;;;;;;5010670;28;20442;-65
2024/01/04 12:06:39;;;;;;;18.30;9.82;;;17.50;85.20;;;;;;5013440;28;20408;-65
2024/01/04 12:09:09;;;;;;;16.23;8.70;;;17.40;85.00;;;;;;5045155;28;20088;-65
2024/01/04 12:11:35;;;;;;;19.15;9.35;;;17.40;85.00;;;;;;5014925;28;20050;-66
2024/01/04 12:14:02;;;;;;;16.48;8.88;;;17.30;85.00;;;;;;4996551;28;20447;-65
2024/01/04 12:16:28;;;;;;;14.02;7.05;;;;;;;;;;5031382;28;20901;-65
2024/01/04 12:18:55;;;;;;;12.35;6.97;;;;;;;;;;5047814;28;20054;-65
2024/01/04 12:21:21;;;;;;;11.77;6.90;;;;;;;;;;5056516;28;20050;-65
2024/01/04 12:23:48;;;;;;;10.40;6.75;;;17.20;84.90;;;;;;5031687;28;20054;-65
2024/01/04 12:26:14;;;;;;;11.25;6.15;;;;;;;;;;5047085;28;20403;-66
2024/01/04 12:28:41;;;;;;;18.65;9.18;;;17.20;84.70;;;;;;5031308;28;20046;-67
2024/01/04 12:31:08;;;;;;;57.47;51.50;;;17.10;82.30;;;;;;5046733;28;20133;-66
2024/01/04 12:33:34;;;;;;;50.83;45.63;;;17.20;81.70;;;;;;4998427;28;20058;-66
2024/01/04 12:36:00;;;;;;;51.38;34.33;;;17.20;84.70;;;;;;5037984;28;20386;-66
2024/01/04 12:38:26;;;;;;;35.88;27.98;;;17.30;83.30;;;;;;5008816;28;20073;-66
2024/01/04 12:40:52;;;;;;;33.60;24.08;;;17.20;84.30;;;;;;5047026;28;20066;-63
2024/01/04 12:43:20;;;;;;;59.55;24.13;;;17.10;81.80;;;;;;5016289;28;20049;-63
2024/01/04 12:45:47;;;;;;;78.97;23.10;;;17.50;84.40;;;;;;4998426;28;20081;-64
2024/01/04 12:48:12;;;;;;;87.38;20.45;;;17.30;84.20;;;;;;4998551;28;20057;-64
2024/01/04 12:50:38;;;;;;;80.93;21.20;;;17.40;84.20;;;;;;5030978;28;20061;-63
2024/01/04 12:53:05;;;;;;;60.03;17.90;;;17.20;84.10;;;;;;5014932;28;20038;-63
2024/01/04 12:55:33;;;;;;;60.63;17.33;;;17.20;84.10;;;;;;5016306;28;20054;-63
2024/01/04 12:57:59;;;;;;;45.90;14.98;;;17.20;84.10;;;;;;5014811;28;20046;-63